DUG - Bisbee Douglas Intl

Pirep is a free, collaborative database of all public and private airports located within the United States. All pilots are welcome to contribute, edit, and improve any airport they have local knowledge about, no registration required.
Are you familiar with this airport? Help out other pilots by adding your local knowledge.
Uploaded photos will be licensed under a CC BY-SA 4.0 license. Please only upload photos you have the rights to use.
Tags
Public
Undocu­mented
METAR / TAF
Edit Tags
Food
Camping
Lodging
Car Rental
Bicycles
Swimming
Golfing
Fishing
Hot Springs
Museum
Flying Clubs
Airpark
Upcoming Events
No upcoming events. Is anything happening here soon?
*
*
*

Where exactly on/near the airport is this event taking place?

Is there a webpage with more information for this event?

Who should be contacted for more information?

What is this event all about?

Repeat every
Description
Transient Parking
Fuel Location
Landing & Tie-down Fees
Crew Car Availability
Flying Clubs
WiFi Access
Airport Statistics
Location: Douglas Bisbee, AZ
Elevation: 4,150ft
Sectional: Phoenix
Activation date: Sep 1942
Fuel: 100LL, A1+ (prices)
Runway 17/35: 6,430ft
Runway 08/26: 4,966ft
Access: Open to the public
Current Weather — VFR
  • Weather data is strictly informational and not for flight planning purposes.
  • METAR
    2024-04-21 22:56:00 MST
    Ceiling Wind Temperature Dewpoint Weather Visbility
    Sky clear 90° @ 13kt 69°F 35°F N/A 10SM
    Raw: KDUG 220556Z AUTO 09013KT 10SM CLR 21/02 A3005 RMK AO2 SLP110 T02060017 10283 20206 50009 TSNO $
  • TAF
    2024-04-21 23:00:00 MST – 2024-04-22 06:00:00 MST
    Ceiling Wind Weather Visbility
    Sky clear 90° @ 12kt, gusts 17kt N/A 6SM
    Clouds: Scattered @ 25,000ft
    Raw: KDUG 220523Z 2206/2306 09012G17KT P6SM SCT250 FM221300 04006KT P6SM SKC FM221600 15008KT P6SM SKC FM222100 22012G20KT P6SM SKC FM230500 18007KT P6SM SKC
  • TAF
    2024-04-22 06:00:00 MST – 2024-04-22 09:00:00 MST
    Ceiling Wind Weather Visbility
    Sky clear 40° @ 6kt N/A 6SM
    Clouds: @ ft
    Raw: KDUG 220523Z 2206/2306 09012G17KT P6SM SCT250 FM221300 04006KT P6SM SKC FM221600 15008KT P6SM SKC FM222100 22012G20KT P6SM SKC FM230500 18007KT P6SM SKC
  • TAF
    2024-04-22 09:00:00 MST – 2024-04-22 14:00:00 MST
    Ceiling Wind Weather Visbility
    Sky clear 150° @ 8kt N/A 6SM
    Clouds: @ ft
    Raw: KDUG 220523Z 2206/2306 09012G17KT P6SM SCT250 FM221300 04006KT P6SM SKC FM221600 15008KT P6SM SKC FM222100 22012G20KT P6SM SKC FM230500 18007KT P6SM SKC
  • TAF
    2024-04-22 14:00:00 MST – 2024-04-22 22:00:00 MST
    Ceiling Wind Weather Visbility
    Sky clear 220° @ 12kt, gusts 20kt N/A 6SM
    Clouds: @ ft
    Raw: KDUG 220523Z 2206/2306 09012G17KT P6SM SCT250 FM221300 04006KT P6SM SKC FM221600 15008KT P6SM SKC FM222100 22012G20KT P6SM SKC FM230500 18007KT P6SM SKC
  • TAF
    2024-04-22 22:00:00 MST – 2024-04-22 23:00:00 MST
    Ceiling Wind Weather Visbility
    Sky clear 180° @ 7kt N/A 6SM
    Clouds: @ ft
    Raw: KDUG 220523Z 2206/2306 09012G17KT P6SM SCT250 FM221300 04006KT P6SM SKC FM221600 15008KT P6SM SKC FM222100 22012G20KT P6SM SKC FM230500 18007KT P6SM SKC
Click/tap to add an annotation marker to the map
Airport Webcams
No webcams added yet.
Direct links to live image URLs will be displayed inline on this page. URLs to separate webpages will be linked to.
URL:
Direct links to live image URLs will be displayed inline on this page. URLs to separate webpages will be linked to.
URL:
Remarks
  • The twy to ry 35 is in poor condition with ruts & loose aggregate.
  • Wildlife on or invof arpt.
  • For cd if una to ctc on fss freq, ctc albuquerque artcc at 505-856-4561.
  • Actvt vasi rwy 17; mirl rwy 17/35 - ctaf.
  • Emergency number 520-432-9268.
  • Self-serve fuel, phone 520-432-9268.
  • Ry 08/26 vfr opns only; daylight use only.
  • Controlling obstruction exceeds a 45 degree slope
Comments
Leave a comment What was your experience like at this airport?